createdAt,value
2023-05-05T00:01:15.837Z,10.10
2023-05-05T00:03:42.745Z,5.83
2023-05-05T00:06:09.527Z,6.50
2023-05-05T00:08:36.187Z,9.73
2023-05-05T00:11:02.791Z,6.83
2023-05-05T00:13:29.484Z,11.90
2023-05-05T00:15:56.157Z,5.60
2023-05-05T00:18:22.940Z,10.23
2023-05-05T00:20:49.744Z,7.43
2023-05-05T00:23:16.791Z,10.57
2023-05-05T00:25:43.551Z,11.40
2023-05-05T00:28:10.406Z,12.60
2023-05-05T00:30:37.558Z,7.83
2023-05-05T00:33:04.386Z,5.87
2023-05-05T00:35:31.261Z,6.53
2023-05-05T00:37:58.266Z,8.00
2023-05-05T00:40:25.405Z,7.30
2023-05-05T00:42:52.339Z,9.00
2023-05-05T00:45:20.221Z,8.33
2023-05-05T00:47:52.851Z,6.23
2023-05-05T00:50:24.106Z,10.30
2023-05-05T00:52:52.976Z,9.73
2023-05-05T00:55:20.130Z,6.23
2023-05-05T00:57:47.736Z,8.60
2023-05-05T01:00:14.644Z,10.30
2023-05-05T01:02:41.494Z,6.40
2023-05-05T01:05:11.322Z,6.63
2023-05-05T01:07:48.495Z,8.63
2023-05-05T01:10:23.415Z,8.60
2023-05-05T01:12:50.198Z,9.57
2023-05-05T01:15:26.606Z,9.37
2023-05-05T01:18:04.601Z,6.17
2023-05-05T01:20:55.412Z,11.37
2023-05-05T01:23:31.021Z,6.23
2023-05-05T01:26:02.650Z,5.90
2023-05-05T01:28:56.678Z,6.93
2023-05-05T01:31:51.947Z,10.40
2023-05-05T01:34:33.027Z,8.47
2023-05-05T01:37:08.283Z,7.67
2023-05-05T01:39:35.155Z,5.20
2023-05-05T01:42:06.419Z,9.83
2023-05-05T01:44:35.104Z,8.90
2023-05-05T01:47:02.717Z,7.57
2023-05-05T01:49:30.899Z,24.93
2023-05-05T01:51:58.928Z,6.90
2023-05-05T01:54:26.336Z,10.20
2023-05-05T01:56:54.486Z,10.60
2023-05-05T01:59:21.767Z,11.73
2023-05-05T02:01:49.061Z,15.63
2023-05-05T02:04:17.984Z,8.90
2023-05-05T02:06:45.420Z,7.43
2023-05-05T02:09:13.060Z,7.87
2023-05-05T02:11:40.607Z,9.20
2023-05-05T02:14:08.078Z,11.53
2023-05-05T02:16:35.673Z,11.07
2023-05-05T02:19:06.276Z,11.57
2023-05-05T02:21:33.895Z,10.93
2023-05-05T02:24:01.361Z,11.67
2023-05-05T02:26:29.537Z,12.90
2023-05-05T02:29:07.453Z,11.67
2023-05-05T02:31:43.061Z,10.57
2023-05-05T02:34:10.977Z,10.80
2023-05-05T02:36:39.970Z,16.83
2023-05-05T02:39:13.426Z,13.40
2023-05-05T02:41:42.724Z,10.53
2023-05-05T02:44:19.342Z,11.13
2023-05-05T02:46:46.145Z,18.17
2023-05-05T02:49:13.096Z,13.83
2023-05-05T02:51:40.035Z,9.53
2023-05-05T02:54:14.423Z,11.20
2023-05-05T02:56:44.587Z,12.80
2023-05-05T02:59:38.272Z,13.73
2023-05-05T03:02:45.498Z,14.80
2023-05-05T03:05:24.073Z,9.40
2023-05-05T03:07:56.145Z,13.50
2023-05-05T03:10:36.449Z,12.50
2023-05-05T03:13:03.282Z,16.60
2023-05-05T03:15:45.165Z,13.37
2023-05-05T03:18:15.523Z,13.37
2023-05-05T03:20:46.500Z,16.17
2023-05-05T03:23:18.306Z,13.63
2023-05-05T03:25:49.433Z,12.10
2023-05-05T03:28:38.842Z,10.07
2023-05-05T03:31:14.286Z,11.50
2023-05-05T03:33:41.096Z,10.83
2023-05-05T03:36:07.903Z,17.90
2023-05-05T03:38:34.810Z,14.70
2023-05-05T03:41:03.308Z,17.00
2023-05-05T03:43:30.952Z,11.97
2023-05-05T03:45:57.921Z,14.20
2023-05-05T03:48:25.145Z,17.23
2023-05-05T03:50:52.978Z,13.67
2023-05-05T03:53:21.430Z,15.33
2023-05-05T03:55:48.914Z,12.00
2023-05-05T03:58:15.562Z,12.90
2023-05-05T04:00:42.434Z,15.27
2023-05-05T04:03:10.848Z,11.13
2023-05-05T04:05:38.005Z,16.60
2023-05-05T04:08:05.054Z,17.50
2023-05-05T04:10:32.147Z,15.60
2023-05-05T04:12:58.954Z,11.77
2023-05-05T04:15:25.846Z,11.77
2023-05-05T04:17:52.756Z,12.40
2023-05-05T04:20:19.465Z,10.97
2023-05-05T04:22:46.305Z,15.77
2023-05-05T04:25:13.805Z,10.27
2023-05-05T04:27:40.531Z,12.83
2023-05-05T04:30:09.426Z,12.77
2023-05-05T04:32:38.375Z,11.80
2023-05-05T04:35:06.466Z,12.97
2023-05-05T04:37:33.156Z,9.63
2023-05-05T04:39:59.990Z,12.13
2023-05-05T04:42:27.249Z,11.80
2023-05-05T04:44:54.205Z,12.60
2023-05-05T04:47:21.176Z,16.00
2023-05-05T04:49:48.308Z,10.77
2023-05-05T04:52:15.033Z,10.57
2023-05-05T04:54:41.767Z,12.00
2023-05-05T04:57:08.510Z,14.10
2023-05-05T04:59:36.513Z,13.80
2023-05-05T05:02:03.363Z,17.03
2023-05-05T05:04:30.046Z,11.97
2023-05-05T05:06:59.117Z,23.23
2023-05-05T05:09:26.266Z,12.90
2023-05-05T05:11:53.356Z,12.40
2023-05-05T05:14:22.073Z,15.77
2023-05-05T05:16:52.771Z,10.80
2023-05-05T05:19:24.333Z,10.57
2023-05-05T05:21:54.058Z,12.67
2023-05-05T05:24:21.634Z,12.00
2023-05-05T05:26:48.446Z,14.83
2023-05-05T05:29:15.188Z,9.23
2023-05-05T05:31:42.486Z,9.30
2023-05-05T05:34:10.749Z,9.30
2023-05-05T05:36:44.413Z,10.63
2023-05-05T05:39:12.106Z,13.83
2023-05-05T05:41:47.909Z,8.57
2023-05-05T05:44:39.485Z,12.40
2023-05-05T05:50:43.799Z,12.10
2023-05-05T05:54:00.971Z,11.07
2023-05-05T05:56:41.579Z,10.57
2023-05-05T06:00:36.892Z,9.30
2023-05-05T06:06:49.195Z,8.03
2023-05-05T06:09:42.346Z,9.27
2023-05-05T06:12:38.656Z,7.30
2023-05-05T06:15:18.077Z,5.97
2023-05-05T06:18:09.379Z,7.10
2023-05-05T06:23:40.773Z,7.13
2023-05-05T06:26:29.178Z,7.50
2023-05-05T06:29:05.254Z,6.30
2023-05-05T06:35:48.713Z,8.90
2023-05-05T06:38:27.674Z,9.47
2023-05-05T06:46:10.050Z,6.67
2023-05-05T06:49:41.545Z,9.30
2023-05-05T06:52:10.666Z,12.50
2023-05-05T06:54:37.251Z,7.80
2023-05-05T06:57:03.923Z,10.40
2023-05-05T06:59:39.238Z,6.37
2023-05-05T07:02:06.789Z,9.30
2023-05-05T07:04:39.373Z,13.83
2023-05-05T07:07:06.221Z,8.27
2023-05-05T07:09:35.381Z,11.77
2023-05-05T07:12:04.142Z,7.50
2023-05-05T07:14:57.158Z,12.10
2023-05-05T07:17:47.996Z,9.30
2023-05-05T07:20:19.292Z,9.60
2023-05-05T07:23:04.394Z,8.40
2023-05-05T07:25:47.063Z,14.37
2023-05-05T07:28:18.410Z,12.17
2023-05-05T07:31:08.809Z,17.63
2023-05-05T07:33:45.906Z,15.70
2023-05-05T07:36:34.056Z,14.57
2023-05-05T07:39:15.066Z,17.63
2023-05-05T07:41:42.873Z,16.23
2023-05-05T07:44:10.088Z,16.20
2023-05-05T07:46:46.650Z,13.87
2023-05-05T07:49:13.629Z,17.90
2023-05-05T07:51:40.509Z,16.03
2023-05-05T07:54:07.404Z,16.43
2023-05-05T07:56:34.453Z,15.40
2023-05-05T07:59:01.551Z,14.10
2023-05-05T08:01:28.369Z,14.17
2023-05-05T08:03:55.049Z,15.43
2023-05-05T08:06:22.030Z,13.30
2023-05-05T08:08:49.189Z,12.30
2023-05-05T08:11:21.893Z,15.10
2023-05-05T08:13:48.909Z,15.57
2023-05-05T08:16:15.921Z,14.90
2023-05-05T08:18:42.916Z,13.70
2023-05-05T08:21:10.432Z,17.60
2023-05-05T08:23:38.299Z,16.70
2023-05-05T08:26:07.808Z,15.40
2023-05-05T08:28:37.685Z,16.03
2023-05-05T08:31:08.131Z,16.40
2023-05-05T08:33:44.633Z,13.63
2023-05-05T08:36:13.820Z,14.73
2023-05-05T08:38:40.729Z,18.63
2023-05-05T08:41:10.191Z,17.97
2023-05-05T08:43:37.350Z,19.40
2023-05-05T08:46:15.297Z,18.53
2023-05-05T08:49:00.173Z,16.63
2023-05-05T08:51:31.261Z,14.50
2023-05-05T08:54:03.652Z,14.27
2023-05-05T08:56:33.966Z,18.07
2023-05-05T08:59:01.886Z,13.87
2023-05-05T09:01:29.117Z,19.30
2023-05-05T09:03:58.000Z,15.93
2023-05-05T09:06:27.132Z,12.80
2023-05-05T09:08:54.463Z,14.40
2023-05-05T09:11:26.516Z,15.37
2023-05-05T09:13:53.345Z,14.97
2023-05-05T09:16:22.190Z,13.67
2023-05-05T09:18:49.236Z,14.37
2023-05-05T09:21:24.795Z,13.03
2023-05-05T09:24:11.527Z,16.73
2023-05-05T09:26:46.306Z,12.87
2023-05-05T09:29:20.339Z,13.67
2023-05-05T09:32:08.293Z,14.03
2023-05-05T09:34:37.374Z,12.23
2023-05-05T09:37:06.668Z,16.17
2023-05-05T09:39:33.409Z,17.50
2023-05-05T09:42:13.523Z,16.53
2023-05-05T09:44:43.242Z,14.07
2023-05-05T09:47:26.188Z,13.60
2023-05-05T09:49:59.056Z,16.50
2023-05-05T09:52:25.974Z,14.10
2023-05-05T09:54:56.999Z,13.70
2023-05-05T09:57:33.621Z,13.90
2023-05-05T10:00:01.545Z,15.33
2023-05-05T10:02:38.972Z,14.67
2023-05-05T10:05:29.977Z,18.17
2023-05-05T10:08:12.785Z,15.67
2023-05-05T10:10:48.970Z,15.10
2023-05-05T10:13:16.328Z,14.00
2023-05-05T10:15:45.215Z,17.07
2023-05-05T10:18:15.028Z,15.73
2023-05-05T10:20:43.730Z,17.80
2023-05-05T10:23:14.719Z,15.43
2023-05-05T10:25:53.447Z,15.13
2023-05-05T10:28:29.745Z,13.70
2023-05-05T10:30:59.122Z,15.60
2023-05-05T10:33:35.363Z,20.03
2023-05-05T10:36:06.551Z,15.83
2023-05-05T10:38:34.271Z,17.47
2023-05-05T10:41:04.770Z,15.70
2023-05-05T10:43:32.153Z,15.90
2023-05-05T10:46:30.475Z,19.20
2023-05-05T10:49:05.310Z,16.80
2023-05-05T10:51:44.170Z,18.30
2023-05-05T10:54:20.380Z,16.20
2023-05-05T10:56:47.354Z,15.27
2023-05-05T10:59:36.193Z,17.10
2023-05-05T11:02:21.445Z,15.87
2023-05-05T11:05:07.099Z,18.20
2023-05-05T11:07:38.740Z,23.07
2023-05-05T11:10:07.005Z,19.47
2023-05-05T11:13:01.984Z,19.30
2023-05-05T11:15:29.171Z,16.10
2023-05-05T11:17:57.269Z,21.00
2023-05-05T11:20:36.827Z,19.70
2023-05-05T11:23:03.527Z,18.73
2023-05-05T11:25:41.030Z,20.50
2023-05-05T11:28:19.657Z,18.97
2023-05-05T11:30:55.938Z,21.10
2023-05-05T11:33:32.702Z,25.67
2023-05-05T11:35:59.430Z,23.53
2023-05-05T11:38:38.522Z,18.57
2023-05-05T11:41:12.278Z,20.13
2023-05-05T11:43:39.899Z,21.83
2023-05-05T11:46:12.272Z,20.53
2023-05-05T11:48:54.630Z,21.50
2023-05-05T11:51:22.673Z,19.70
2023-05-05T11:53:49.891Z,21.83
2023-05-05T11:56:21.973Z,20.77
2023-05-05T11:58:51.495Z,22.10
2023-05-05T12:01:18.270Z,21.33
2023-05-05T12:03:46.213Z,22.77
2023-05-05T12:06:13.186Z,20.20
2023-05-05T12:08:41.272Z,18.63
2023-05-05T12:11:10.493Z,22.10
2023-05-05T12:13:40.153Z,24.07
2023-05-05T12:16:14.475Z,20.77
2023-05-05T12:18:42.729Z,25.83
2023-05-05T12:21:17.667Z,20.60
2023-05-05T12:23:44.658Z,24.73
2023-05-05T12:26:29.015Z,22.40
2023-05-05T12:29:00.049Z,22.83
2023-05-05T12:31:42.453Z,20.60
2023-05-05T12:34:10.433Z,19.30
2023-05-05T12:36:37.654Z,19.80
2023-05-05T12:39:09.332Z,19.90
2023-05-05T12:41:36.306Z,18.57
2023-05-05T12:44:04.418Z,20.33
2023-05-05T12:46:32.027Z,19.97
2023-05-05T12:49:07.084Z,19.50
2023-05-05T12:51:37.961Z,19.57
2023-05-05T12:54:11.770Z,20.80
2023-05-05T12:56:48.709Z,19.27
2023-05-05T12:59:27.756Z,21.00
2023-05-05T13:02:14.277Z,21.30
2023-05-05T13:04:54.429Z,18.73
2023-05-05T13:07:22.207Z,19.30
2023-05-05T13:09:51.458Z,18.00
2023-05-05T13:12:18.719Z,20.93
2023-05-05T13:14:46.722Z,17.77
2023-05-05T13:17:14.499Z,15.97
2023-05-05T13:19:46.413Z,17.40
2023-05-05T13:22:13.601Z,20.77
2023-05-05T13:24:50.521Z,20.03
2023-05-05T13:27:25.519Z,24.93
2023-05-05T13:29:52.194Z,18.60
2023-05-05T13:32:18.951Z,18.33
2023-05-05T13:34:45.711Z,20.27
2023-05-05T13:37:12.597Z,23.87
2023-05-05T13:39:39.343Z,18.73
2023-05-05T13:42:06.060Z,18.13
2023-05-05T13:44:32.743Z,19.80
2023-05-05T13:46:59.414Z,24.33
2023-05-05T13:49:27.020Z,18.20
2023-05-05T13:51:56.207Z,18.70
2023-05-05T13:54:22.876Z,18.93
2023-05-05T13:56:49.542Z,18.30
2023-05-05T13:59:16.167Z,19.47
2023-05-05T14:01:42.846Z,19.13
2023-05-05T14:04:09.559Z,25.30
2023-05-05T14:06:36.478Z,18.80
2023-05-05T14:09:06.501Z,21.23
2023-05-05T14:11:33.526Z,17.67
2023-05-05T14:14:00.214Z,19.20
2023-05-05T14:16:26.869Z,20.13
2023-05-05T14:18:56.246Z,19.17
2023-05-05T14:21:22.928Z,17.10
2023-05-05T14:23:49.637Z,18.57
2023-05-05T14:26:19.955Z,18.13
2023-05-05T14:28:48.956Z,19.13
2023-05-05T14:31:17.505Z,16.90
2023-05-05T14:33:44.147Z,19.77
2023-05-05T14:36:10.864Z,16.77
2023-05-05T14:39:41.821Z,18.77
2023-05-05T14:42:13.988Z,20.97
2023-05-05T14:44:41.486Z,19.93
2023-05-05T14:47:39.871Z,21.37
2023-05-05T14:50:36.764Z,22.77
2023-05-05T14:53:23.289Z,20.97
2023-05-05T14:55:53.694Z,20.50
2023-05-05T14:58:24.873Z,20.67
2023-05-05T15:01:48.611Z,21.50
2023-05-05T15:04:29.631Z,22.30
2023-05-05T15:18:45.173Z,24.90
2023-05-05T15:21:37.868Z,16.27
2023-05-05T15:24:38.415Z,17.93
2023-05-05T15:28:11.423Z,14.83
2023-05-05T15:38:16.126Z,9.13
2023-05-05T15:53:38.024Z,12.00
2023-05-05T16:00:32.884Z,8.80
2023-05-05T16:04:27.311Z,12.80
2023-05-05T16:06:59.849Z,12.20
2023-05-05T16:09:29.564Z,14.93
2023-05-05T16:11:56.222Z,8.93
2023-05-05T16:14:25.114Z,13.83
2023-05-05T16:16:58.543Z,11.30
2023-05-05T16:19:28.398Z,12.10
2023-05-05T16:21:55.312Z,7.93
2023-05-05T16:24:22.184Z,12.67
2023-05-05T16:26:49.020Z,11.97
2023-05-05T16:29:16.584Z,10.67
2023-05-05T16:31:43.313Z,13.83
2023-05-05T16:34:17.343Z,9.70
2023-05-05T16:36:44.526Z,7.23
2023-05-05T16:39:11.960Z,5.30
2023-05-05T16:41:38.617Z,9.30
2023-05-05T16:44:05.316Z,6.13
2023-05-05T16:46:32.054Z,10.10
2023-05-05T16:48:58.740Z,9.70
2023-05-05T16:51:25.331Z,10.20
2023-05-05T16:53:51.958Z,8.53
2023-05-05T16:56:18.653Z,7.07
2023-05-05T16:58:45.314Z,7.23
2023-05-05T17:01:14.289Z,8.57
2023-05-05T17:03:41.285Z,5.77
2023-05-05T17:06:08.011Z,8.40
2023-05-05T17:08:34.830Z,9.10
2023-05-05T17:11:01.565Z,7.03
2023-05-05T17:13:28.216Z,6.10
2023-05-05T17:15:54.888Z,7.67
2023-05-05T17:18:22.704Z,5.47
2023-05-05T17:20:49.700Z,7.53
2023-05-05T17:23:16.698Z,6.53
2023-05-05T17:25:43.525Z,12.17
2023-05-05T17:28:10.189Z,11.43
2023-05-05T17:30:37.667Z,10.03
2023-05-05T17:33:04.423Z,8.57
2023-05-05T17:35:31.146Z,5.73
2023-05-05T17:37:57.783Z,6.00
2023-05-05T17:40:24.438Z,6.50
2023-05-05T17:42:51.100Z,6.97
2023-05-05T17:45:17.762Z,6.70
2023-05-05T17:47:44.475Z,4.20
2023-05-05T17:50:11.371Z,10.03
2023-05-05T17:52:38.076Z,9.07
2023-05-05T17:55:05.082Z,6.33
2023-05-05T17:57:31.709Z,6.57
2023-05-05T17:59:58.310Z,4.57
2023-05-05T18:02:25.259Z,4.90
2023-05-05T18:04:52.027Z,6.80
2023-05-05T18:07:18.640Z,5.50
2023-05-05T18:09:45.289Z,7.43
2023-05-05T18:12:12.214Z,10.50
2023-05-05T18:14:38.903Z,7.00
2023-05-05T18:17:05.883Z,8.20
2023-05-05T18:19:32.696Z,13.90
2023-05-05T18:21:59.390Z,12.50
2023-05-05T18:24:28.970Z,5.27
2023-05-05T18:27:02.966Z,5.63
2023-05-05T18:29:29.610Z,3.70
2023-05-05T18:31:56.349Z,7.97
2023-05-05T18:34:23.304Z,3.30
2023-05-05T18:36:51.278Z,4.70
2023-05-05T18:39:18.017Z,5.53
2023-05-05T18:41:44.719Z,11.77
2023-05-05T18:44:11.485Z,9.10
2023-05-05T18:46:38.122Z,6.70
2023-05-05T18:49:04.871Z,13.60
2023-05-05T18:51:32.188Z,5.13
2023-05-05T18:54:00.125Z,6.40
2023-05-05T18:56:27.012Z,6.50
2023-05-05T18:58:53.760Z,6.90
2023-05-05T19:01:20.743Z,6.50
2023-05-05T19:03:48.129Z,7.67
2023-05-05T19:06:17.604Z,7.30
2023-05-05T19:08:45.557Z,7.43
2023-05-05T19:11:12.556Z,6.50
2023-05-05T19:16:06.071Z,9.23
2023-05-05T19:18:36.408Z,9.70
2023-05-05T19:21:03.114Z,9.40
2023-05-05T19:23:29.794Z,6.03
2023-05-05T19:25:56.411Z,8.43
2023-05-05T19:28:23.066Z,14.40
2023-05-05T19:30:49.802Z,9.93
2023-05-05T19:33:16.626Z,11.63
2023-05-05T19:35:44.263Z,7.20
2023-05-05T19:38:11.320Z,7.73
2023-05-05T19:40:38.933Z,13.73
2023-05-05T19:43:06.103Z,17.13
2023-05-05T19:45:33.759Z,11.73
2023-05-05T19:48:01.742Z,7.57
2023-05-05T19:50:30.375Z,7.37
2023-05-05T19:52:57.960Z,8.87
2023-05-05T19:55:25.017Z,10.93
2023-05-05T19:57:51.916Z,9.80
2023-05-05T20:00:19.855Z,10.07
2023-05-05T20:02:47.439Z,11.63
2023-05-05T20:05:16.420Z,8.10
2023-05-05T20:07:46.910Z,11.70
2023-05-05T20:10:13.954Z,11.30
2023-05-05T20:12:47.642Z,11.03
2023-05-05T20:15:18.656Z,13.30
2023-05-05T20:17:46.846Z,12.13
2023-05-05T20:20:20.348Z,12.30
2023-05-05T20:22:47.911Z,12.03
2023-05-05T20:25:18.237Z,19.70
2023-05-05T20:27:45.882Z,12.00
2023-05-05T20:30:13.130Z,11.77
2023-05-05T20:32:40.069Z,12.30
2023-05-05T20:35:31.882Z,14.20
2023-05-05T20:37:58.491Z,18.00
2023-05-05T20:40:25.513Z,19.00
2023-05-05T20:42:52.236Z,19.57
2023-05-05T20:45:19.431Z,18.63
2023-05-05T20:47:46.428Z,20.20
2023-05-05T20:50:13.514Z,22.73
2023-05-05T20:52:40.224Z,20.57
2023-05-05T20:55:07.246Z,26.50
2023-05-05T20:57:34.138Z,20.97
2023-05-05T21:00:01.165Z,19.80
2023-05-05T21:02:28.381Z,17.33
2023-05-05T21:04:58.329Z,14.90
2023-05-05T21:07:25.281Z,18.73
2023-05-05T21:09:52.551Z,20.70
2023-05-05T21:12:20.582Z,24.80
2023-05-05T21:14:47.217Z,26.17
2023-05-05T21:17:13.884Z,42.37
2023-05-05T21:19:41.216Z,31.73
2023-05-05T21:22:07.825Z,30.70
2023-05-05T21:24:34.412Z,28.07
2023-05-05T21:27:01.075Z,29.77
2023-05-05T21:29:27.857Z,28.40
2023-05-05T21:31:54.632Z,26.87
2023-05-05T21:34:21.333Z,31.80
2023-05-05T21:36:48.014Z,32.63
2023-05-05T21:39:14.641Z,32.87
2023-05-05T21:41:41.341Z,37.20
2023-05-05T21:44:07.929Z,28.13
2023-05-05T21:46:34.628Z,31.30
2023-05-05T21:49:12.790Z,30.00
2023-05-05T21:51:40.365Z,30.40
2023-05-05T21:54:07.226Z,27.63
2023-05-05T21:56:34.745Z,32.73
2023-05-05T21:59:01.483Z,29.07
2023-05-05T22:01:28.268Z,28.20
2023-05-05T22:03:55.214Z,27.07
2023-05-05T22:06:21.998Z,25.40
2023-05-05T22:08:48.738Z,25.47
2023-05-05T22:11:15.796Z,31.17
2023-05-05T22:13:42.465Z,25.53
2023-05-05T22:16:09.886Z,36.67
2023-05-05T22:18:36.629Z,34.97
2023-05-05T22:21:03.345Z,34.77
2023-05-05T22:23:30.075Z,30.27
2023-05-05T22:25:57.235Z,27.77
2023-05-05T22:28:23.885Z,28.80
2023-05-05T22:30:50.704Z,29.90
2023-05-05T22:33:17.360Z,28.07
2023-05-05T22:35:43.998Z,28.83
2023-05-05T22:38:10.716Z,28.07
2023-05-05T22:40:37.350Z,35.00
2023-05-05T22:43:03.954Z,35.43
2023-05-05T22:45:30.592Z,29.77
2023-05-05T22:47:57.290Z,32.30
2023-05-05T22:50:24.053Z,34.40
2023-05-05T22:52:50.917Z,33.43
2023-05-05T22:55:17.640Z,40.43
2023-05-05T22:57:44.360Z,35.87
2023-05-05T23:00:11.251Z,37.47
2023-05-05T23:02:38.498Z,32.00
2023-05-05T23:05:05.574Z,31.33
2023-05-05T23:07:32.330Z,31.37
2023-05-05T23:09:58.993Z,32.87
2023-05-05T23:12:25.660Z,34.80
2023-05-05T23:14:52.501Z,36.57
2023-05-05T23:17:19.599Z,33.83
2023-05-05T23:19:49.883Z,37.47
2023-05-05T23:22:16.552Z,36.00
2023-05-05T23:24:43.195Z,35.47
2023-05-05T23:27:09.820Z,33.97
2023-05-05T23:29:36.449Z,30.00
2023-05-05T23:32:03.087Z,31.93
2023-05-05T23:34:30.600Z,31.43
2023-05-05T23:36:57.469Z,30.87
2023-05-05T23:39:24.206Z,31.63
2023-05-05T23:41:50.821Z,27.00
2023-05-05T23:44:17.564Z,24.83
2023-05-05T23:46:44.250Z,28.47
2023-05-05T23:49:11.141Z,31.73
2023-05-05T23:51:37.812Z,29.10
2023-05-05T23:54:04.507Z,30.60
2023-05-05T23:56:31.158Z,37.10
2023-05-05T23:58:57.855Z,31.23
